Angel Fire, NM

10:22 AM MST on December 05, 2019 (GMT -0700)
Angel Fire

Weather History for KAXX - October, 2019

Change the Weather History Date:

Thursday, October 10, 2019

  Actual Average (WUND) Record (WUND)
Temperature  
Mean Temperature 40 °F -  
Max Temperature 55 °F - - (-1)
Min Temperature 25 °F - - (-1)
Degree Days  
Heating Degree Days 25    
Moisture  
Dew Point 13 °F    
Average Humidity 30    
Maximum Humidity 48    
Minimum Humidity 11    
Precipitation  
Precipitation 0.00 in - - ()
Sea Level Pressure  
Sea Level Pressure 30.00 in    
Wind  
Wind Speed 20 mph (WSW)    
Max Wind Speed 31 mph    
Max Gust Speed 41 mph    
Visibility 10 miles    
Events      
Averages and records for this station are not official NWS values.
T = Trace of Precipitation, MM = Missing Value Source: NWS Daily Summary

Daily Weather History Graph

Daily Weather History Graph

Search for Another Location

Airport or City:

Astronomy

Oct. 10, 2019 Rise Set
Actual Time 7:03 AM MDT 6:31 PM MDT
Civil Twilight 6:37 AM MDT 6:57 PM MDT
Nautical Twilight 6:08 AM MDT 7:27 PM MDT
Astronomical Twilight 5:38 AM MDT 7:57 PM MDT
Moon 5:27 PM MDT (10/10) 3:57 AM MDT (10/10)
Length of Visible Light 12h 19m
Length of Day
11h 28m
Waxing Gibbous, 91% of the Moon is Illuminated
Oct 10
Waxing Gibbous
Oct 13
Full
Oct 21
Last Quarter
Oct 27
New
Nov 4
First Quarter

Hourly Weather History & Observations

Time (MDT) Temp. Windchill Dew Point Humidity Pressure Visibility Wind Dir Wind Speed Gust Speed Precip Events Conditions
12:15 AM 52.0 °F - 18.5 °F 27% 29.93 in 10.0 mi West 18.4 mph 38.0 mph N/A   Clear
12:35 AM 51.6 °F - 19.8 °F 29% 29.93 in 10.0 mi West 24.2 mph 38.0 mph N/A   Clear
12:55 AM 50.9 °F - 21.0 °F 31% 29.93 in 10.0 mi West 21.9 mph 34.5 mph N/A   Clear
1:15 AM 50.5 °F - 21.7 °F 32% 29.93 in 10.0 mi West 29.9 mph 41.4 mph N/A   Clear
1:40 AM 49.8 °F - 22.5 °F 34% 29.94 in 10.0 mi West 25.3 mph 34.5 mph N/A   Clear
1:55 AM 49.5 °F - 22.3 °F 34% 29.94 in 10.0 mi West 24.2 mph 36.8 mph N/A   Clear
2:15 AM 48.4 °F - 22.8 °F 37% 29.95 in 10.0 mi West 26.5 mph 38.0 mph N/A   Clear
2:35 AM 48.0 °F - 23.0 °F 37% 29.95 in 10.0 mi West 25.3 mph 38.0 mph N/A   Clear
2:55 AM 47.3 °F - 23.0 °F 38% 29.95 in 10.0 mi West 20.7 mph 33.4 mph N/A   Clear
3:15 AM 47.3 °F - 22.6 °F 38% 29.95 in 10.0 mi West 23.0 mph 29.9 mph N/A   Clear
3:35 AM 47.1 °F - 22.8 °F 38% 29.95 in 10.0 mi West 20.7 mph 35.7 mph N/A   Clear
3:55 AM 46.6 °F - 23.0 °F 39% 29.95 in 10.0 mi West 19.6 mph 27.6 mph N/A   Clear
4:15 AM 46.4 °F 38.5 °F 23.0 °F 40% 29.95 in 10.0 mi West 21.9 mph 27.6 mph N/A   Clear
4:35 AM 46.4 °F 38.5 °F 23.0 °F 40% 29.94 in 10.0 mi West 21.9 mph 31.1 mph N/A   Clear
4:55 AM 46.2 °F 38.7 °F 22.3 °F 39% 29.94 in 10.0 mi West 19.6 mph 27.6 mph N/A   Clear
5:15 AM 45.9 °F 38.3 °F 21.4 °F 38% 29.94 in 10.0 mi West 19.6 mph 29.9 mph N/A   Clear
5:35 AM 45.5 °F 37.6 °F 22.1 °F 40% 29.94 in 10.0 mi West 20.7 mph 26.5 mph N/A   Clear
5:55 AM 45.5 °F 37.8 °F 22.6 °F 41% 29.94 in 10.0 mi West 19.6 mph 28.8 mph N/A   Clear
6:15 AM 45.0 °F 37.6 °F 23.0 °F 42% 29.95 in 10.0 mi West 17.3 mph 27.6 mph N/A   Clear
6:35 AM 44.8 °F 37.1 °F 23.7 °F 44% 29.95 in 10.0 mi WSW 18.4 mph 26.5 mph N/A   Clear
6:55 AM 44.6 °F 37.8 °F 25.2 °F 46% 29.95 in 10.0 mi West 15.0 mph 25.3 mph N/A   Clear
7:15 AM 44.6 °F 37.8 °F 25.3 °F 47% 29.96 in 10.0 mi West 15.0 mph 25.3 mph N/A   Clear
7:35 AM 44.6 °F 36.9 °F 25.7 °F 48% 29.97 in 10.0 mi WSW 18.4 mph 24.2 mph N/A   Clear
7:55 AM 45.5 °F 37.6 °F 25.5 °F 46% 29.97 in 10.0 mi WSW 20.7 mph 31.1 mph N/A   Clear
8:15 AM 46.4 °F 38.3 °F 25.5 °F 44% 29.97 in 10.0 mi WSW 23.0 mph 28.8 mph N/A   Clear
8:35 AM 47.8 °F - 25.2 °F 41% 29.98 in 10.0 mi WSW 21.9 mph 31.1 mph N/A   Clear
8:55 AM 48.6 °F - 25.3 °F 40% 29.97 in 10.0 mi West 18.4 mph 28.8 mph N/A   Clear
9:15 AM 49.5 °F - 24.8 °F 38% 29.98 in 10.0 mi WSW 17.3 mph 33.4 mph N/A   Clear
9:55 AM 51.1 °F - 24.4 °F 35% 29.99 in 10.0 mi WSW 20.7 mph 32.2 mph N/A   Clear
10:15 AM 51.8 °F - 24.4 °F 34% 29.99 in 10.0 mi WSW 28.8 mph 38.0 mph N/A   Clear
10:35 AM 52.9 °F - 24.8 °F 34% 29.99 in 10.0 mi WSW 28.8 mph 35.7 mph N/A   Clear
10:55 AM 52.7 °F - 25.2 °F 34% 29.99 in 10.0 mi West 25.3 mph 35.7 mph N/A   Clear
11:15 AM 52.5 °F - 25.2 °F 35% 29.99 in 10.0 mi WSW 19.6 mph 33.4 mph N/A   Scattered Clouds
11:35 AM 54.0 °F - 25.7 °F 34% 29.98 in 10.0 mi SW 17.3 mph 24.2 mph N/A   Scattered Clouds
11:55 AM 52.3 °F - 24.1 °F 33% 29.98 in 10.0 mi West 25.3 mph 38.0 mph N/A   Scattered Clouds
12:15 PM 53.6 °F - 25.9 °F 34% 29.97 in 10.0 mi West 11.5 mph 29.9 mph N/A   Mostly Cloudy
12:35 PM 54.1 °F - 23.9 °F 31% 29.97 in 10.0 mi WSW 20.7 mph 29.9 mph N/A   Overcast
12:55 PM 52.5 °F - 22.5 °F 31% 29.96 in 10.0 mi WSW 19.6 mph 33.4 mph N/A   Overcast
1:15 PM 51.4 °F - 24.4 °F 35% 29.96 in 10.0 mi West 17.3 mph 35.7 mph N/A   Overcast
1:35 PM 51.6 °F - 23.0 °F 33% 29.96 in 10.0 mi West 15.0 mph 27.6 mph N/A   Overcast
1:55 PM 52.7 °F - 22.5 °F 31% 29.95 in 10.0 mi WSW 20.7 mph 28.8 mph N/A   Overcast
2:15 PM 55.0 °F - 22.3 °F 28% 29.96 in 10.0 mi WSW 20.7 mph 29.9 mph N/A   Mostly Cloudy
2:35 PM 54.0 °F - 20.3 °F 27% 29.96 in 10.0 mi WSW 23.0 mph 40.3 mph N/A   Scattered Clouds
2:55 PM 53.6 °F - 20.5 °F 27% 29.96 in 10.0 mi West 12.7 mph 39.1 mph N/A   Mostly Cloudy
3:15 PM 52.3 °F - 21.2 °F 30% 29.97 in 10.0 mi WSW 18.4 mph 29.9 mph N/A   Overcast
3:35 PM 52.7 °F - 20.3 °F 28% 29.97 in 10.0 mi SW 18.4 mph 33.4 mph N/A   Mostly Cloudy
3:55 PM 52.7 °F - 19.6 °F 27% 29.97 in 10.0 mi SW 17.3 mph 36.8 mph N/A   Scattered Clouds
4:15 PM 52.2 °F - 18.3 °F 26% 29.97 in 10.0 mi WSW 31.1 mph 36.8 mph N/A   Clear
4:35 PM 51.1 °F - 16.5 °F 25% 29.98 in 10.0 mi West 23.0 mph 34.5 mph N/A   Clear
4:55 PM 49.5 °F - 13.6 °F 24% 29.99 in 10.0 mi West 25.3 mph 38.0 mph N/A   Clear
5:15 PM 47.1 °F - 11.5 °F 24% 30.00 in 10.0 mi West 21.9 mph 35.7 mph N/A   Clear
5:35 PM 45.7 °F 37.4 °F 10.0 °F 24% 30.01 in 10.0 mi West 23.0 mph 36.8 mph N/A   Scattered Clouds
5:55 PM 43.9 °F 35.2 °F 5.7 °F 21% 30.02 in 10.0 mi West 21.9 mph 33.4 mph N/A   Scattered Clouds
6:15 PM 41.9 °F 33.1 °F 1.4 °F 19% 30.03 in 10.0 mi West 19.6 mph 33.4 mph N/A   Clear
6:35 PM 40.3 °F 30.7 °F -4.2 °F 15% 30.05 in 10.0 mi WSW 20.7 mph 33.4 mph N/A   Clear
6:55 PM 38.8 °F 30.4 °F -8.1 °F 13% 30.06 in 10.0 mi SW 15.0 mph 23.0 mph N/A   Clear
7:15 PM 37.6 °F 28.8 °F -13.2 °F 11% 30.07 in 10.0 mi South 15.0 mph 25.3 mph N/A   Clear
7:35 PM 36.3 °F 28.0 °F -14.6 °F 11% 30.08 in 10.0 mi SW 12.7 mph 28.8 mph N/A   Clear
7:55 PM 35.2 °F 25.8 °F -15.9 °F 11% 30.10 in 10.0 mi WSW 15.0 mph 25.3 mph N/A   Clear
8:15 PM 34.5 °F 25.7 °F -15.5 °F 11% 30.11 in 10.0 mi WSW 12.7 mph 24.2 mph N/A   Clear
8:35 PM 34.0 °F 21.8 °F -15.9 °F 11% 30.11 in 10.0 mi WSW 23.0 mph - N/A   Clear
8:55 PM 33.8 °F 22.5 °F -15.7 °F 11% 30.12 in 10.0 mi WSW 19.6 mph 28.8 mph N/A   Clear
9:15 PM 33.3 °F 21.8 °F -14.8 °F 12% 30.12 in 10.0 mi WSW 19.6 mph 28.8 mph N/A   Clear
9:35 PM 32.4 °F 24.0 °F -14.3 °F 13% 30.12 in 10.0 mi WSW 10.4 mph 23.0 mph N/A   Clear
9:55 PM 32.0 °F 27.5 °F -13.7 °F 13% 30.15 in 10.0 mi SE 4.6 mph 16.1 mph N/A   Clear
10:15 PM 31.1 °F 23.7 °F -12.5 °F 15% 30.16 in 10.0 mi SW 8.1 mph - N/A   Clear
10:35 PM 30.9 °F - -11.9 °F 15% 30.17 in 10.0 mi Calm Calm - N/A   Clear
10:55 PM 29.1 °F 25.4 °F -10.5 °F 18% 30.18 in 10.0 mi SW 3.5 mph - N/A   Clear
11:15 PM 27.3 °F 18.4 °F -9.2 °F 20% 30.18 in 10.0 mi WNW 9.2 mph - N/A   Clear
11:35 PM 25.3 °F 16.0 °F -8.5 °F 23% 30.18 in 10.0 mi West 9.2 mph - N/A   Clear
11:55 PM 26.8 °F 19.3 °F -8.5 °F 21% 30.18 in 10.0 mi West 6.9 mph - N/A   Clear